Time;durP1;ratioP1;P1;durP2;ratioP2;P2;SDS_P1;SDS_P2;PMS_P1;PMS_P2;Temp;Humidity;BMP_temperature;BMP_pressure;BME280_temperature;BME280_humidity;BME280_pressure;Samples;Min_cycle;Max_cycle;Signal;HPM_P1;HPM_P2
2022/11/18 00:01:08;;;;;;;6.93;3.25;;;7.80;99.90;;;;;;5002531;28;20046;-73
2022/11/18 00:03:34;;;;;;;7.35;4.30;;;7.80;99.90;;;;;;5002743;28;20124;-73
2022/11/18 00:06:00;;;;;;;10.45;4.40;;;7.80;99.90;;;;;;5008264;28;20030;-73
2022/11/18 00:08:26;;;;;;;9.95;4.47;;;7.80;99.90;;;;;;5006177;28;20536;-73
2022/11/18 00:10:52;;;;;;;7.97;4.53;;;7.80;99.90;;;;;;5006082;28;20033;-73
2022/11/18 00:16:11;;;;;;;7.78;3.78;;;7.80;99.90;;;;;;5001733;28;20066;-73
2022/11/18 00:18:37;;;;;;;8.18;4.22;;;7.80;99.90;;;;;;4997727;28;21771;-73
2022/11/18 00:21:05;;;;;;;7.30;3.88;;;7.80;99.90;;;;;;5005292;28;20640;-72
2022/11/18 00:23:31;;;;;;;8.52;4.72;;;7.80;99.90;;;;;;5006172;28;20100;-73
2022/11/18 00:26:09;;;;;;;8.85;4.25;;;7.80;99.90;;;;;;4990041;28;20073;-73
2022/11/18 00:28:34;;;;;;;9.27;4.80;;;7.80;99.90;;;;;;5005639;28;20117;-73
2022/11/18 00:31:11;;;;;;;11.10;5.35;;;7.80;99.90;;;;;;4979006;28;20129;-73
2022/11/18 00:33:38;;;;;;;8.77;4.55;;;7.80;99.90;;;;;;5005754;28;20038;-73
2022/11/18 00:36:05;;;;;;;7.82;4.47;;;7.70;99.90;;;;;;5002676;28;20502;-73
2022/11/18 00:38:31;;;;;;;9.73;5.25;;;7.80;99.90;;;;;;5005506;28;20050;-73
2022/11/18 00:41:01;;;;;;;8.07;4.30;;;7.80;99.90;;;;;;5004535;28;20065;-73
2022/11/18 00:43:26;;;;;;;7.38;4.35;;;7.80;99.90;;;;;;5004676;28;20511;-73
2022/11/18 00:45:52;;;;;;;12.00;4.78;;;7.80;99.90;;;;;;4986856;28;20169;-73
2022/11/18 00:48:20;;;;;;;11.65;5.68;;;7.80;99.90;;;;;;5004959;28;20490;-73
2022/11/18 00:50:50;;;;;;;9.68;4.90;;;7.80;99.90;;;;;;5021697;28;20064;-73
2022/11/18 00:53:16;;;;;;;10.35;4.55;;;7.80;99.90;;;;;;5002340;28;20038;-73
2022/11/18 00:55:42;;;;;;;11.85;5.30;;;7.80;99.90;;;;;;5003485;28;20498;-73
2022/11/18 00:58:08;;;;;;;14.82;5.80;;;7.80;99.90;;;;;;5004281;28;20038;-73
2022/11/18 01:00:34;;;;;;;10.90;4.65;;;7.80;99.90;;;;;;5001200;28;21561;-72
2022/11/18 01:03:01;;;;;;;12.32;5.18;;;7.80;99.90;;;;;;5002512;28;20034;-72
2022/11/18 01:05:27;;;;;;;8.82;4.93;;;7.80;99.90;;;;;;5004109;28;20096;-73
2022/11/18 01:07:52;;;;;;;10.05;5.28;;;7.80;99.90;;;;;;4980057;28;20482;-73
2022/11/18 01:10:18;;;;;;;13.75;5.03;;;7.80;99.90;;;;;;4986280;28;20033;-73
2022/11/18 01:15:28;;;;;;;11.15;4.82;;;7.80;99.90;;;;;;5002438;28;21843;-73
2022/11/18 01:17:53;;;;;;;17.20;6.22;;;7.80;99.90;;;;;;5002905;28;20034;-73
2022/11/18 01:20:19;;;;;;;16.35;5.88;;;7.80;99.90;;;;;;5005211;28;20415;-73
2022/11/18 01:22:44;;;;;;;9.65;5.00;;;7.80;99.90;;;;;;4987227;28;20065;-73
2022/11/18 01:25:10;;;;;;;12.32;5.78;;;7.80;99.90;;;;;;4976854;28;20042;-73
2022/11/18 01:27:35;;;;;;;12.88;5.70;;;7.80;99.90;;;;;;5005701;28;20049;-73
2022/11/18 01:30:01;;;;;;;11.63;5.07;;;7.80;99.90;;;;;;5003814;28;20148;-73
2022/11/18 01:32:27;;;;;;;10.82;5.22;;;7.80;99.90;;;;;;5015687;28;20033;-73
2022/11/18 01:34:53;;;;;;;11.68;4.68;;;7.80;99.90;;;;;;5003868;28;20033;-73
2022/11/18 01:37:19;;;;;;;10.68;3.88;;;7.80;99.90;;;;;;5004584;28;20037;-73
2022/11/18 01:39:44;;;;;;;9.77;4.68;;;7.80;99.90;;;;;;4988236;28;20038;-73
2022/11/18 01:42:15;;;;;;;12.43;4.82;;;7.80;99.90;;;;;;5005127;28;20042;-73
2022/11/18 01:45:03;;;;;;;11.82;5.63;;;7.80;99.90;;;;;;5001905;28;20109;-72
2022/11/18 01:47:39;;;;;;;11.25;5.50;;;7.80;99.90;;;;;;4999953;28;20958;-73
2022/11/18 01:50:05;;;;;;;;;;;7.80;99.90;;;;;;5003112;28;20125;-73
2022/11/18 01:52:33;;;;;;;9.23;4.78;;;7.80;99.90;;;;;;4981677;28;20004;-73
2022/11/18 01:55:06;;;;;;;9.02;4.03;;;7.80;99.90;;;;;;5003945;28;20042;-73
2022/11/18 01:57:32;;;;;;;9.88;4.95;;;7.70;99.90;;;;;;5017413;28;20069;-73
2022/11/18 02:00:02;;;;;;;11.88;4.57;;;7.70;99.90;;;;;;5000748;28;20636;-73
2022/11/18 02:02:31;;;;;;;8.70;4.82;;;7.70;99.90;;;;;;4998873;28;20053;-73
2022/11/18 02:04:57;;;;;;;9.80;5.07;;;7.70;99.90;;;;;;5000642;28;20037;-72
2022/11/18 02:07:24;;;;;;;16.45;5.90;;;7.70;99.90;;;;;;4986868;28;20066;-73
2022/11/18 02:09:51;;;;;;;8.60;4.38;;;7.70;99.90;;;;;;5002710;28;20064;-73
2022/11/18 02:12:17;;;;;;;9.32;5.15;;;7.70;99.90;;;;;;5004608;28;20908;-73
2022/11/18 02:14:45;;;;;;;9.90;5.15;;;7.70;99.90;;;;;;5001134;28;20573;-73
2022/11/18 02:17:38;;;;;;;7.82;4.45;;;7.70;99.90;;;;;;5017310;28;20044;-73
2022/11/18 02:20:23;;;;;;;8.75;4.47;;;7.70;99.90;;;;;;5002762;28;20100;-73
2022/11/18 02:23:15;;;;;;;10.63;4.35;;;7.80;99.90;;;;;;5000439;28;20100;-73
2022/11/18 02:26:04;;;;;;;13.40;5.25;;;7.80;99.90;;;;;;5002055;28;20046;-73
2022/11/18 02:28:40;;;;;;;9.45;4.05;;;7.80;99.90;;;;;;5001242;28;20534;-73
2022/11/18 02:31:14;;;;;;;12.05;5.43;;;7.80;99.90;;;;;;5000931;28;20088;-73
2022/11/18 02:33:51;;;;;;;8.97;4.60;;;7.80;99.90;;;;;;5001249;28;20531;-73
2022/11/18 02:36:19;;;;;;;12.07;5.57;;;7.80;99.90;;;;;;5002613;28;20740;-72
2022/11/18 02:38:51;;;;;;;12.32;5.55;;;7.70;99.90;;;;;;5002934;28;20038;-73
2022/11/18 02:41:22;;;;;;;12.93;5.80;;;7.80;99.90;;;;;;5002213;28;20046;-73
2022/11/18 02:43:54;;;;;;;7.55;4.75;;;7.70;99.90;;;;;;5001606;28;20041;-73
2022/11/18 02:46:32;;;;;;;10.38;5.45;;;7.70;99.90;;;;;;5017269;28;20034;-73
2022/11/18 02:48:59;;;;;;;12.38;5.00;;;7.80;99.90;;;;;;5003250;28;20514;-73
2022/11/18 02:51:28;;;;;;;10.02;4.75;;;7.80;99.90;;;;;;5002016;28;20395;-73
2022/11/18 02:53:57;;;;;;;13.48;4.97;;;7.80;99.90;;;;;;5003835;28;20048;-73
2022/11/18 02:56:26;;;;;;;12.70;5.40;;;7.70;99.90;;;;;;4991525;28;20045;-73
2022/11/18 02:58:51;;;;;;;8.43;4.78;;;7.70;99.90;;;;;;5000054;28;20514;-73
2022/11/18 03:01:29;;;;;;;9.88;4.53;;;7.70;99.90;;;;;;5002459;28;20044;-73
2022/11/18 03:03:55;;;;;;;12.90;4.88;;;7.70;99.90;;;;;;5002078;28;20034;-72
2022/11/18 03:06:35;;;;;;;12.88;5.18;;;7.80;99.90;;;;;;4998397;28;20092;-73
2022/11/18 03:09:06;;;;;;;8.60;4.20;;;7.70;99.90;;;;;;5002431;28;20399;-73
2022/11/18 03:11:38;;;;;;;9.20;4.78;;;7.70;99.90;;;;;;4981465;28;20155;-73
2022/11/18 03:14:35;;;;;;;10.00;4.15;;;7.70;99.90;;;;;;5002561;28;20117;-73
2022/11/18 03:17:07;;;;;;;16.13;4.95;;;7.70;99.90;;;;;;4982167;28;20045;-73
2022/11/18 03:19:54;;;;;;;7.93;4.53;;;7.70;99.90;;;;;;5022239;28;20089;-73
2022/11/18 03:22:29;;;;;;;10.40;3.78;;;7.70;99.90;;;;;;4978454;28;20456;-73
2022/11/18 03:25:05;;;;;;;10.18;5.25;;;7.70;99.90;;;;;;5005937;28;20037;-73
2022/11/18 03:27:53;;;;;;;8.07;4.80;;;7.70;99.90;;;;;;5004845;28;20068;-73
2022/11/18 03:30:21;;;;;;;11.48;4.57;;;7.70;99.90;;;;;;5019523;28;20092;-73
2022/11/18 03:32:55;;;;;;;11.10;4.53;;;7.70;99.90;;;;;;5004751;28;20540;-73
2022/11/18 03:35:26;;;;;;;7.53;4.40;;;7.70;99.90;;;;;;5005331;28;20599;-73
2022/11/18 03:38:00;;;;;;;8.07;4.55;;;7.70;99.90;;;;;;5004846;28;20042;-73
2022/11/18 03:40:31;;;;;;;9.63;4.22;;;7.70;99.90;;;;;;5003305;28;20064;-73
2022/11/18 03:43:16;;;;;;;9.75;4.30;;;7.70;99.90;;;;;;5005481;28;20049;-73
2022/11/18 03:45:49;;;;;;;10.55;5.03;;;7.70;99.90;;;;;;5003879;28;20053;-72
2022/11/18 03:48:17;;;;;;;11.93;4.18;;;7.70;99.90;;;;;;5002983;28;20046;-73
2022/11/18 03:50:54;;;;;;;8.55;4.03;;;7.60;99.90;;;;;;5006149;28;20076;-73
2022/11/18 03:53:22;;;;;;;12.13;4.57;;;7.70;99.90;;;;;;5021390;28;20068;-72
2022/11/18 03:55:53;;;;;;;9.38;4.82;;;7.60;99.90;;;;;;5005060;28;20046;-72
2022/11/18 03:58:28;;;;;;;9.82;4.85;;;7.60;99.90;;;;;;4989177;28;20044;-73
2022/11/18 04:01:00;;;;;;;9.55;4.95;;;7.60;99.90;;;;;;5005330;28;20133;-73
2022/11/18 04:03:26;;;;;;;7.82;4.32;;;7.70;99.90;;;;;;5003501;28;20054;-73
2022/11/18 04:06:02;;;;;;;9.98;4.85;;;7.60;99.90;;;;;;5006112;28;20487;-73
2022/11/18 04:08:33;;;;;;;9.75;5.03;;;7.60;99.90;;;;;;5003364;28;20042;-72
2022/11/18 04:12:01;;;;;;;8.65;4.97;;;7.60;99.90;;;;;;5002708;28;20045;-72
2022/11/18 04:13:59;;;;;;;8.63;4.55;;;7.60;99.90;;;;;;5005010;28;20499;-73
2022/11/18 04:16:24;;;;;;;9.05;4.75;;;7.60;99.90;;;;;;5002626;28;20053;-72
2022/11/18 04:18:50;;;;;;;7.78;4.18;;;7.60;99.90;;;;;;5005008;28;20094;-73
2022/11/18 04:21:16;;;;;;;8.10;4.35;;;7.60;99.90;;;;;;5005186;28;20048;-73
2022/11/18 04:23:41;;;;;;;8.18;4.57;;;7.60;99.90;;;;;;5003698;28;20257;-73
2022/11/18 04:26:10;;;;;;;12.93;4.55;;;7.60;99.90;;;;;;5004506;28;20084;-73
2022/11/18 04:28:36;;;;;;;9.68;5.38;;;7.60;99.90;;;;;;4999681;28;20034;-73
2022/11/18 04:31:01;;;;;;;9.48;4.85;;;7.60;99.90;;;;;;5003861;28;20399;-73
2022/11/18 04:33:27;;;;;;;8.15;4.28;;;7.60;99.90;;;;;;5003895;28;20088;-73
2022/11/18 04:35:52;;;;;;;11.18;4.28;;;7.60;99.90;;;;;;5004831;28;20084;-72
2022/11/18 04:38:18;;;;;;;9.18;4.88;;;7.60;99.90;;;;;;5004039;28;20038;-73
2022/11/18 04:40:45;;;;;;;6.75;3.63;;;7.60;99.90;;;;;;5003034;28;20498;-72
2022/11/18 04:43:10;;;;;;;11.98;5.40;;;7.60;99.90;;;;;;5001362;28;20040;-73
2022/11/18 04:45:36;;;;;;;6.72;3.33;;;7.60;99.90;;;;;;4986234;28;20433;-73
2022/11/18 04:48:02;;;;;;;8.60;5.03;;;7.60;99.90;;;;;;4980606;28;20058;-72
2022/11/18 04:50:27;;;;;;;9.15;4.20;;;7.60;99.90;;;;;;5005320;28;20034;-72
2022/11/18 04:52:53;;;;;;;13.55;3.97;;;7.50;99.90;;;;;;5003912;28;20137;-72
2022/11/18 04:55:19;;;;;;;10.68;4.70;;;7.50;99.90;;;;;;5004370;28;20497;-73
2022/11/18 04:57:44;;;;;;;10.90;4.65;;;7.50;99.90;;;;;;5004650;28;20442;-73
2022/11/18 05:00:11;;;;;;;8.75;4.03;;;7.50;99.90;;;;;;5001685;28;20045;-72
2022/11/18 05:02:36;;;;;;;10.43;5.10;;;7.50;99.90;;;;;;5004748;28;20092;-73
2022/11/18 05:05:02;;;;;;;9.32;4.35;;;7.50;99.90;;;;;;4989494;28;20042;-73
2022/11/18 05:07:28;;;;;;;10.52;4.60;;;7.50;99.90;;;;;;5003591;28;20038;-72
2022/11/18 05:09:53;;;;;;;5.75;4.05;;;7.60;99.90;;;;;;5004921;28;20030;-73
2022/11/18 05:15:03;;;;;;;14.90;5.03;;;7.60;99.90;;;;;;4996379;28;20129;-72
2022/11/18 05:17:29;;;;;;;8.82;4.20;;;7.60;99.90;;;;;;5002744;28;20208;-72
2022/11/18 05:19:55;;;;;;;8.82;4.20;;;7.50;99.90;;;;;;5004285;28;20068;-73
2022/11/18 05:22:20;;;;;;;7.25;3.67;;;7.60;99.90;;;;;;5004706;28;20120;-73
2022/11/18 05:24:46;;;;;;;8.25;4.43;;;7.60;99.90;;;;;;5004548;28;20038;-72
2022/11/18 05:27:13;;;;;;;10.27;4.50;;;7.50;99.90;;;;;;5004731;28;20034;-73
2022/11/18 05:29:38;;;;;;;17.30;6.57;;;7.50;99.90;;;;;;5003484;28;20042;-73
2022/11/18 05:32:04;;;;;;;9.75;4.47;;;7.50;99.90;;;;;;5000144;28;20037;-73
2022/11/18 05:34:30;;;;;;;9.45;4.68;;;7.50;99.90;;;;;;5005363;28;20051;-72
2022/11/18 05:36:55;;;;;;;10.20;5.60;;;7.50;99.90;;;;;;5003345;28;20034;-72
2022/11/18 05:39:21;;;;;;;10.07;4.70;;;7.50;99.90;;;;;;5005489;28;20108;-73
2022/11/18 05:44:30;;;;;;;10.68;4.78;;;7.50;99.90;;;;;;4999100;28;20045;-73
2022/11/18 05:46:56;;;;;;;8.00;4.20;;;7.50;99.90;;;;;;5003471;28;20958;-72
2022/11/18 05:49:22;;;;;;;8.98;4.45;;;7.50;99.90;;;;;;5003812;28;20533;-73
2022/11/18 05:51:48;;;;;;;9.85;4.53;;;7.50;99.90;;;;;;5004525;28;20033;-73
2022/11/18 05:54:16;;;;;;;9.45;4.85;;;7.50;99.90;;;;;;5002910;28;20491;-72
2022/11/18 05:56:44;;;;;;;9.18;4.43;;;7.50;99.90;;;;;;5004274;28;20127;-73
2022/11/18 05:59:10;;;;;;;7.45;3.92;;;7.50;99.90;;;;;;4999481;28;20053;-73
2022/11/18 06:01:50;;;;;;;9.65;4.10;;;7.50;99.90;;;;;;5002990;28;20087;-72
2022/11/18 06:04:19;;;;;;;8.63;5.28;;;7.50;99.90;;;;;;5002474;28;20050;-73
2022/11/18 06:06:47;;;;;;;6.88;3.75;;;7.50;99.90;;;;;;4984910;28;20069;-73
2022/11/18 06:09:19;;;;;;;10.13;5.25;;;7.50;99.90;;;;;;5001676;28;20081;-72
2022/11/18 06:11:49;;;;;;;11.40;5.00;;;7.50;99.90;;;;;;5002529;28;20068;-73
2022/11/18 06:14:21;;;;;;;10.90;4.85;;;7.50;99.90;;;;;;5001691;28;20042;-73
2022/11/18 06:16:52;;;;;;;11.40;5.53;;;7.50;99.90;;;;;;5004186;28;20050;-73
2022/11/18 06:19:18;;;;;;;8.95;4.35;;;7.50;99.90;;;;;;5002995;28;20064;-73
2022/11/18 06:21:44;;;;;;;9.68;4.18;;;7.50;99.90;;;;;;5002619;28;20049;-73
2022/11/18 06:24:12;;;;;;;8.90;4.57;;;7.40;99.90;;;;;;5001141;28;20511;-73
2022/11/18 06:26:38;;;;;;;6.97;4.07;;;7.40;99.90;;;;;;5004296;28;20149;-73
2022/11/18 06:29:05;;;;;;;13.55;4.75;;;7.40;99.90;;;;;;4980855;28;20436;-73
2022/11/18 06:31:31;;;;;;;11.60;4.97;;;7.40;99.90;;;;;;5002806;28;20038;-73
2022/11/18 06:33:57;;;;;;;10.68;4.20;;;7.40;99.90;;;;;;5002814;28;20088;-72
2022/11/18 06:36:22;;;;;;;10.77;4.07;;;7.40;99.90;;;;;;5001594;28;20037;-73
2022/11/18 06:38:48;;;;;;;7.32;4.28;;;7.40;99.90;;;;;;5003900;28;20042;-72
2022/11/18 06:41:13;;;;;;;8.73;4.05;;;7.40;99.90;;;;;;5003328;28;20121;-72
2022/11/18 06:43:42;;;;;;;11.05;5.28;;;7.30;99.90;;;;;;5000522;28;20129;-73
2022/11/18 06:49:02;;;;;;;8.73;3.47;;;7.30;99.90;;;;;;5006600;28;20042;-72
2022/11/18 06:51:28;;;;;;;9.80;4.60;;;7.30;99.90;;;;;;5004193;28;20026;-73
2022/11/18 06:53:54;;;;;;;9.90;4.75;;;7.30;99.90;;;;;;5006643;28;22110;-72
2022/11/18 06:56:21;;;;;;;11.02;4.07;;;7.30;99.90;;;;;;5008870;28;20099;-72
2022/11/18 06:58:51;;;;;;;8.85;3.75;;;7.30;99.90;;;;;;5000447;28;20042;-72
2022/11/18 07:01:22;;;;;;;9.20;4.93;;;7.30;99.90;;;;;;5005882;28;20406;-73
2022/11/18 07:03:48;;;;;;;11.30;4.40;;;7.30;99.90;;;;;;5003023;28;20438;-73
2022/11/18 07:06:17;;;;;;;11.13;4.30;;;7.30;99.90;;;;;;5021964;28;20030;-72
2022/11/18 07:08:43;;;;;;;10.55;4.03;;;7.30;99.90;;;;;;5006948;28;22034;-73
2022/11/18 07:11:12;;;;;;;9.20;4.18;;;7.20;99.90;;;;;;5006330;28;20061;-73
2022/11/18 07:13:39;;;;;;;14.82;5.28;;;7.30;99.90;;;;;;4993671;28;20124;-73
2022/11/18 07:16:10;;;;;;;10.07;4.63;;;7.30;99.90;;;;;;4988623;28;20096;-73
2022/11/18 07:18:37;;;;;;;12.18;3.92;;;7.30;99.90;;;;;;5004019;28;20050;-73
2022/11/18 07:21:12;;;;;;;9.77;4.28;;;7.20;99.90;;;;;;5006389;28;20046;-73
2022/11/18 07:23:38;;;;;;;12.10;4.70;;;7.20;99.90;;;;;;5007450;28;20053;-73
2022/11/18 07:26:04;;;;;;;8.43;3.97;;;7.20;99.90;;;;;;5007169;28;20030;-73
2022/11/18 07:28:30;;;;;;;15.38;4.75;;;7.20;99.90;;;;;;5006791;28;20044;-73
2022/11/18 07:31:13;;;;;;;8.13;4.10;;;7.20;99.90;;;;;;4988376;28;20092;-73
2022/11/18 07:33:40;;;;;;;10.05;4.72;;;7.20;99.90;;;;;;5005430;28;20117;-73
2022/11/18 07:36:17;;;;;;;10.40;4.10;;;7.20;99.90;;;;;;5021584;28;20041;-73
2022/11/18 07:38:43;;;;;;;9.02;4.13;;;7.20;99.90;;;;;;4991160;28;20065;-73
2022/11/18 07:41:11;;;;;;;9.48;4.57;;;7.20;99.90;;;;;;5004654;28;20521;-72
2022/11/18 07:43:37;;;;;;;12.00;3.90;;;7.20;99.90;;;;;;5003683;28;20080;-72
2022/11/18 07:46:10;;;;;;;8.68;3.75;;;7.20;99.90;;;;;;5005153;28;20112;-73
2022/11/18 07:48:35;;;;;;;10.55;3.47;;;7.20;99.90;;;;;;5003622;28;20045;-72
2022/11/18 07:51:01;;;;;;;8.23;3.67;;;7.10;99.90;;;;;;5005981;28;20022;-73
2022/11/18 07:53:29;;;;;;;6.20;3.35;;;7.10;99.90;;;;;;4988605;28;20542;-73
2022/11/18 07:55:55;;;;;;;7.95;3.70;;;7.10;99.90;;;;;;5002408;28;20045;-73
2022/11/18 07:58:20;;;;;;;6.70;2.63;;;7.10;99.90;;;;;;4983672;28;20046;-72
2022/11/18 08:00:46;;;;;;;7.43;3.30;;;7.10;99.90;;;;;;5001688;28;20038;-73
2022/11/18 08:03:12;;;;;;;5.13;2.97;;;7.20;99.90;;;;;;5001272;28;20046;-73
2022/11/18 08:05:37;;;;;;;7.63;2.67;;;7.20;99.90;;;;;;5001339;28;20034;-72
2022/11/18 08:08:03;;;;;;;6.38;3.13;;;7.20;99.90;;;;;;4985457;28;20041;-73
2022/11/18 08:10:29;;;;;;;5.93;2.92;;;7.20;99.90;;;;;;4999247;28;20999;-72
2022/11/18 08:12:55;;;;;;;6.22;3.20;;;7.20;99.90;;;;;;4981866;28;20407;-73
2022/11/18 08:15:21;;;;;;;7.90;2.90;;;7.20;99.90;;;;;;4996739;28;20081;-73
2022/11/18 08:17:47;;;;;;;5.22;2.85;;;7.20;99.90;;;;;;5000316;28;20545;-73
2022/11/18 08:20:12;;;;;;;6.03;2.90;;;7.10;99.90;;;;;;5000337;28;20054;-73
2022/11/18 08:22:38;;;;;;;7.68;3.17;;;7.10;99.90;;;;;;4999748;28;20140;-73
2022/11/18 08:25:04;;;;;;;8.20;3.22;;;7.20;99.90;;;;;;5000798;28;20527;-73
2022/11/18 08:27:31;;;;;;;7.60;3.28;;;7.20;99.90;;;;;;4999835;28;20053;-73
2022/11/18 08:29:56;;;;;;;7.55;3.55;;;7.10;99.90;;;;;;5000937;28;20049;-73
2022/11/18 08:32:22;;;;;;;7.43;3.58;;;7.20;99.90;;;;;;4999994;28;20046;-72
2022/11/18 08:34:49;;;;;;;7.10;3.03;;;7.20;99.90;;;;;;4995713;28;20045;-73
2022/11/18 08:37:15;;;;;;;5.78;2.50;;;7.10;99.90;;;;;;4998046;28;20042;-73
2022/11/18 08:39:41;;;;;;;8.68;2.58;;;7.10;99.90;;;;;;4998231;28;20049;-73
2022/11/18 08:42:07;;;;;;;7.00;3.65;;;7.10;99.90;;;;;;4998426;28;20041;-73
2022/11/18 08:44:33;;;;;;;10.90;3.88;;;7.10;99.90;;;;;;4978408;28;20064;-73
2022/11/18 08:46:59;;;;;;;6.40;3.20;;;7.10;99.90;;;;;;4999229;28;20502;-73
2022/11/18 08:49:25;;;;;;;6.80;2.80;;;7.20;99.90;;;;;;5000084;28;20038;-73
2022/11/18 08:51:50;;;;;;;7.65;3.88;;;7.10;99.90;;;;;;4998142;28;20068;-73
2022/11/18 08:54:16;;;;;;;7.35;4.65;;;7.10;99.90;;;;;;4996806;28;20092;-73
2022/11/18 08:56:42;;;;;;;10.93;3.53;;;7.10;99.90;;;;;;4982642;28;20049;-73
2022/11/18 08:59:07;;;;;;;7.68;4.00;;;7.10;99.90;;;;;;4998289;28;20084;-73
2022/11/18 09:01:36;;;;;;;9.52;3.70;;;7.10;99.90;;;;;;4997382;28;20452;-73
2022/11/18 09:04:02;;;;;;;7.30;3.70;;;7.10;99.90;;;;;;4999870;28;20038;-73
2022/11/18 09:06:28;;;;;;;6.68;3.90;;;7.10;99.90;;;;;;4997146;28;20046;-74
2022/11/18 09:08:54;;;;;;;9.45;3.53;;;7.10;99.90;;;;;;4983723;28;20041;-73
2022/11/18 09:11:25;;;;;;;7.30;3.83;;;7.10;99.90;;;;;;4999240;28;20034;-73
2022/11/18 09:13:56;;;;;;;6.95;3.40;;;7.10;99.90;;;;;;4981066;28;20099;-73
2022/11/18 09:16:23;;;;;;;8.50;4.40;;;7.10;99.90;;;;;;4996270;28;20048;-73
2022/11/18 09:18:50;;;;;;;7.72;3.65;;;7.00;99.90;;;;;;4998270;28;20058;-73
2022/11/18 09:21:16;;;;;;;10.32;4.53;;;7.00;99.90;;;;;;4998289;28;20034;-73
2022/11/18 09:23:43;;;;;;;8.68;4.38;;;7.00;99.90;;;;;;4997718;28;20485;-73
2022/11/18 09:26:11;;;;;;;7.20;3.50;;;7.00;99.90;;;;;;4995587;28;20091;-73
2022/11/18 09:28:37;;;;;;;7.43;3.95;;;7.10;99.90;;;;;;5001173;28;20045;-73
2022/11/18 09:31:11;;;;;;;8.45;4.28;;;7.10;99.90;;;;;;4979771;28;20038;-73
2022/11/18 09:33:38;;;;;;;8.70;4.32;;;7.10;99.90;;;;;;4996987;28;20037;-73
2022/11/18 09:36:05;;;;;;;8.60;3.90;;;7.10;99.90;;;;;;4995253;28;20076;-73
2022/11/18 09:38:31;;;;;;;7.65;3.30;;;7.10;99.90;;;;;;5009823;28;20760;-73
2022/11/18 09:41:23;;;;;;;7.65;3.75;;;7.20;99.90;;;;;;4997661;28;20563;-73
2022/11/18 09:44:07;;;;;;;8.90;3.88;;;7.20;99.90;;;;;;4997338;28;20029;-73
2022/11/18 09:46:48;;;;;;;8.80;3.08;;;7.20;99.90;;;;;;5004792;28;20045;-73
2022/11/18 09:49:19;;;;;;;7.35;3.47;;;7.20;99.90;;;;;;4999608;28;20117;-73
2022/11/18 09:51:50;;;;;;;5.85;3.08;;;7.20;99.90;;;;;;4999343;28;20083;-73
2022/11/18 09:54:24;;;;;;;8.70;3.78;;;7.20;99.90;;;;;;4996367;28;20041;-73
2022/11/18 09:56:52;;;;;;;6.07;3.00;;;7.20;99.90;;;;;;4993463;28;20048;-73
2022/11/18 09:59:21;;;;;;;8.00;3.20;;;7.20;99.90;;;;;;5000652;28;20042;-73
2022/11/18 10:01:48;;;;;;;7.50;4.00;;;7.20;99.90;;;;;;5000737;28;20132;-73
2022/11/18 10:04:16;;;;;;;10.15;3.65;;;7.20;99.90;;;;;;4996511;28;20037;-73
2022/11/18 10:06:43;;;;;;;8.52;3.92;;;7.20;99.90;;;;;;5000535;28;20432;-73
2022/11/18 10:09:29;;;;;;;6.80;2.58;;;7.20;99.90;;;;;;4981980;28;20542;-75
2022/11/18 10:12:17;;;;;;;7.40;3.65;;;7.20;99.90;;;;;;4992420;28;20046;-71
2022/11/18 10:15:02;;;;;;;5.78;3.13;;;7.30;99.90;;;;;;4998258;28;20038;-71
2022/11/18 10:17:40;;;;;;;10.85;3.47;;;7.30;99.90;;;;;;4995789;28;20184;-71
2022/11/18 10:20:23;;;;;;;6.55;3.17;;;7.30;99.90;;;;;;4998998;28;20507;-71
2022/11/18 10:23:02;;;;;;;5.95;3.40;;;7.30;99.90;;;;;;4995066;28;20053;-71
2022/11/18 10:25:27;;;;;;;6.53;2.95;;;7.20;99.90;;;;;;4974549;28;20038;-73
2022/11/18 10:27:55;;;;;;;6.53;3.55;;;7.20;99.90;;;;;;4997507;28;20075;-70
2022/11/18 10:30:23;;;;;;;10.05;3.67;;;7.20;99.90;;;;;;4996218;28;20117;-72
2022/11/18 10:33:01;;;;;;;9.32;4.22;;;7.20;99.90;;;;;;4998264;28;20477;-75
2022/11/18 10:35:33;;;;;;;7.75;3.90;;;7.10;99.90;;;;;;4999962;28;20056;-77
2022/11/18 10:38:04;;;;;;;7.53;4.72;;;7.10;99.90;;;;;;4996363;28;20441;-73
2022/11/18 10:40:31;;;;;;;14.75;4.95;;;7.10;99.90;;;;;;4996644;28;20049;-71
2022/11/18 10:42:57;;;;;;;9.05;3.88;;;7.10;99.90;;;;;;4992470;28;20112;-73
2022/11/18 10:45:24;;;;;;;9.55;3.88;;;7.10;99.90;;;;;;4997042;28;20156;-73
2022/11/18 10:48:08;;;;;;;8.02;3.78;;;7.10;99.90;;;;;;4995866;28;20049;-73
2022/11/18 10:50:39;;;;;;;7.90;3.83;;;7.10;99.90;;;;;;4994275;28;20046;-73
2022/11/18 10:53:25;;;;;;;8.02;3.50;;;7.10;99.90;;;;;;4986609;28;20060;-73
2022/11/18 10:56:01;;;;;;;;;;;7.10;99.90;;;;;;4980027;28;20042;-73
2022/11/18 10:58:29;;;;;;;12.15;4.00;;;7.10;99.90;;;;;;4996389;28;20595;-74
2022/11/18 11:01:25;;;;;;;9.05;4.22;;;7.10;99.90;;;;;;4995063;28;20030;-75
2022/11/18 11:04:01;;;;;;;8.52;3.83;;;7.00;99.90;;;;;;4997131;28;20046;-75
2022/11/18 11:06:38;;;;;;;7.88;3.05;;;7.00;99.90;;;;;;4994805;28;20049;-73
2022/11/18 11:09:21;;;;;;;11.00;3.45;;;7.00;99.90;;;;;;4997939;28;20452;-72
2022/11/18 11:12:11;;;;;;;6.32;2.75;;;7.00;99.90;;;;;;5010850;28;20456;-72
2022/11/18 11:14:54;;;;;;;6.90;3.08;;;7.00;99.90;;;;;;4997095;28;20057;-72
2022/11/18 11:17:34;;;;;;;8.15;4.05;;;7.00;99.90;;;;;;5011527;28;20124;-72
2022/11/18 11:20:22;;;;;;;8.10;2.85;;;7.00;99.90;;;;;;4997824;28;22097;-72
2022/11/18 11:22:48;;;;;;;7.00;2.97;;;7.00;99.90;;;;;;4996060;28;20054;-73
2022/11/18 11:25:15;;;;;;;7.22;2.78;;;7.00;99.90;;;;;;4997307;28;20029;-72
2022/11/18 11:28:03;;;;;;;6.35;3.25;;;7.00;99.90;;;;;;4996755;28;20687;-73
2022/11/18 11:30:34;;;;;;;6.07;2.90;;;7.00;99.90;;;;;;4997925;28;20081;-73
2022/11/18 11:33:24;;;;;;;5.70;2.50;;;7.00;99.90;;;;;;4992395;28;20203;-72
2022/11/18 11:36:24;;;;;;;5.15;2.47;;;7.00;99.90;;;;;;4998850;28;20438;-73
2022/11/18 11:39:29;;;;;;;8.60;3.60;;;6.90;99.90;;;;;;4998597;28;20521;-72
2022/11/18 11:42:18;;;;;;;5.05;2.67;;;6.80;99.90;;;;;;5016142;28;20045;-73
2022/11/18 11:44:59;;;;;;;9.43;3.72;;;6.80;99.90;;;;;;4998507;28;20491;-73
2022/11/18 11:47:55;;;;;;;7.90;3.25;;;6.80;99.90;;;;;;5018646;28;20092;-73
2022/11/18 11:50:52;;;;;;;8.27;2.75;;;6.80;99.90;;;;;;4999286;28;20042;-72
2022/11/18 11:53:39;;;;;;;7.80;3.33;;;6.80;99.90;;;;;;4999934;28;20688;-72
2022/11/18 11:56:33;;;;;;;4.80;2.00;;;6.80;99.90;;;;;;4998208;28;20054;-73
2022/11/18 11:59:21;;;;;;;6.38;2.90;;;6.80;99.90;;;;;;4997411;28;20049;-73
2022/11/18 12:02:17;;;;;;;8.18;3.45;;;6.80;99.90;;;;;;5000586;28;20050;-73
2022/11/18 12:04:51;;;;;;;8.47;3.50;;;6.80;99.90;;;;;;4984613;28;20509;-72
2022/11/18 12:07:24;;;;;;;11.23;4.47;;;6.70;99.90;;;;;;4997621;28;20422;-72
2022/11/18 12:10:20;;;;;;;9.07;3.22;;;6.70;99.90;;;;;;4996412;28;20176;-73
2022/11/18 12:12:57;;;;;;;7.38;3.50;;;6.70;99.90;;;;;;5014930;28;20487;-72
2022/11/18 12:15:59;;;;;;;6.32;2.97;;;6.70;99.90;;;;;;4979906;28;20057;-73
2022/11/18 12:18:55;;;;;;;5.72;3.33;;;6.70;99.90;;;;;;4983264;28;20062;-72
2022/11/18 12:21:43;;;;;;;7.80;3.28;;;6.80;99.90;;;;;;4996367;28;20049;-72
2022/11/18 12:24:33;;;;;;;7.80;2.97;;;6.80;99.90;;;;;;4977954;28;20037;-72
2022/11/18 12:27:11;;;;;;;7.63;3.80;;;6.80;99.90;;;;;;4997256;28;20140;-72
2022/11/18 12:29:48;;;;;;;4.93;2.65;;;6.70;99.90;;;;;;4995832;28;20483;-72
2022/11/18 12:32:29;;;;;;;9.10;2.08;;;6.70;99.90;;;;;;5014501;28;20034;-72
2022/11/18 12:34:59;;;;;;;5.03;2.30;;;6.60;99.90;;;;;;4999378;28;20042;-72
2022/11/18 12:37:25;;;;;;;5.70;2.40;;;6.60;99.90;;;;;;4993714;28;20042;-72
2022/11/18 12:39:57;;;;;;;6.57;2.97;;;6.60;99.90;;;;;;4997076;28;20133;-72
2022/11/18 12:45:42;;;;;;;7.35;1.85;;;6.50;99.90;;;;;;5001214;28;20065;-72
2022/11/18 12:48:23;;;;;;;5.72;2.28;;;6.40;99.90;;;;;;4998834;28;20941;-72
2022/11/18 12:50:50;;;;;;;5.50;2.15;;;6.40;99.90;;;;;;4998637;28;20376;-72
2022/11/18 12:53:38;;;;;;;6.85;2.85;;;6.40;99.90;;;;;;4997636;28;20038;-72
2022/11/18 12:56:16;;;;;;;11.00;2.97;;;6.40;99.90;;;;;;4998603;28;20048;-72
2022/11/18 12:58:46;;;;;;;8.20;2.78;;;6.40;99.90;;;;;;4980519;28;20034;-73
2022/11/18 13:01:16;;;;;;;6.28;2.42;;;6.40;99.90;;;;;;5000729;28;20034;-72
2022/11/18 13:03:42;;;;;;;6.53;2.70;;;6.40;99.90;;;;;;4999948;28;20046;-73
2022/11/18 13:06:20;;;;;;;7.38;3.10;;;6.30;99.90;;;;;;5000519;28;20373;-72
2022/11/18 13:08:58;;;;;;;6.80;3.63;;;6.30;99.90;;;;;;4995595;28;20045;-72
2022/11/18 13:11:43;;;;;;;7.63;2.92;;;6.30;99.90;;;;;;4994821;28;20042;-72
2022/11/18 13:20:26;;;;;;;7.10;3.03;;;6.30;99.90;;;;;;5004032;28;20085;-73
2022/11/18 13:25:44;;;;;;;6.97;3.25;;;6.30;99.90;;;;;;5002587;28;20042;-72
2022/11/18 13:28:37;;;;;;;6.40;3.03;;;6.30;99.90;;;;;;5002308;28;20044;-72
2022/11/18 13:31:12;;;;;;;8.48;3.10;;;6.30;99.90;;;;;;5003872;28;20046;-72
2022/11/18 13:33:38;;;;;;;10.00;2.72;;;6.30;99.90;;;;;;4993701;28;20042;-72
2022/11/18 13:36:17;;;;;;;10.30;3.75;;;6.30;99.90;;;;;;4998677;28;20176;-72
2022/11/18 13:38:58;;;;;;;8.10;3.20;;;6.30;99.90;;;;;;4996780;28;20033;-72
2022/11/18 13:41:31;;;;;;;8.13;3.40;;;6.30;99.90;;;;;;4997963;28;20045;-72
2022/11/18 13:44:18;;;;;;;8.68;2.92;;;6.30;99.90;;;;;;4996612;28;20120;-72